Time;durP1;ratioP1;P1;durP2;ratioP2;P2;SDS_P1;SDS_P2;PMS_P1;PMS_P2;Temp;Humidity;BMP_temperature;BMP_pressure;BME280_temperature;BME280_humidity;BME280_pressure;Samples;Min_cycle;Max_cycle;Signal;HPM_P1;HPM_P2
2021/12/31 00:00:48;;;;;;;40.60;15.80;;;;;;;5.31;33.84;99161.22;5108613;28;20130;-66
2021/12/31 00:03:17;;;;;;;46.37;17.37;;;;;;;5.79;33.91;99158.59;5108942;28;20109;-66
2021/12/31 00:05:44;;;;;;;43.07;17.37;;;;;;;5.38;34.35;99150.97;5110115;28;20516;-65
2021/12/31 00:08:09;;;;;;;41.70;16.23;;;;;;;5.08;34.41;99157.16;5110996;28;20079;-65
2021/12/31 00:10:35;;;;;;;41.43;16.57;;;;;;;5.11;34.48;99146.38;5110860;28;20050;-65
2021/12/31 00:13:01;;;;;;;43.20;16.90;;;;;;;5.15;34.20;99137.25;5091878;28;20364;-65
2021/12/31 00:15:27;;;;;;;44.87;16.60;;;;;;;5.50;33.82;99142.81;5109791;28;20047;-65
2021/12/31 00:17:55;;;;;;;43.97;17.67;;;;;;;5.86;33.62;99139.50;5109175;28;20445;-66
2021/12/31 00:20:24;;;;;;;43.23;17.87;;;;;;;5.74;34.01;99145.84;5109641;28;20049;-66
2021/12/31 00:25:18;;;;;;;41.57;16.97;;;;;;;5.05;34.02;99107.44;5108865;28;20044;-66
2021/12/31 00:27:44;;;;;;;36.37;17.17;;;;;;;5.18;34.23;99143.03;5110284;28;20458;-66
2021/12/31 00:30:10;;;;;;;43.10;16.60;;;;;;;5.39;34.17;99150.00;5110856;28;20067;-65
2021/12/31 00:32:36;;;;;;;36.83;15.97;;;;;;;5.11;34.44;99149.84;5111117;28;20097;-66
2021/12/31 00:35:02;;;;;;;46.57;17.37;;;;;;;5.13;34.44;99144.44;5109547;28;20043;-66
2021/12/31 00:37:31;;;;;;;38.13;15.47;;;;;;;5.62;34.40;99135.59;5110440;28;20423;-66
2021/12/31 00:39:57;;;;;;;36.20;16.80;;;;;;;5.07;34.45;99129.19;5110982;28;20094;-66
2021/12/31 00:42:23;;;;;;;37.50;15.10;;;;;;;5.33;34.24;99119.81;5109277;28;20095;-66
2021/12/31 00:44:49;;;;;;;49.97;16.63;;;;;;;5.09;34.39;99109.66;5110736;28;20449;-65
2021/12/31 00:47:15;;;;;;;40.23;17.23;;;;;;;5.34;34.22;99123.25;5110496;28;20035;-66
2021/12/31 00:49:40;;;;;;;45.07;18.77;;;;;;;5.00;34.13;99075.44;5110594;28;20043;-65
2021/12/31 00:52:09;;;;;;;43.93;17.10;;;;;;;5.52;33.91;99113.72;5110520;28;20380;-66
2021/12/31 00:54:35;;;;;;;37.80;15.63;;;;;;;5.22;34.33;99112.88;5092534;28;20039;-65
2021/12/31 00:57:03;;;;;;;42.50;16.57;;;;;;;5.48;34.09;99112.31;5107884;28;20451;-66
2021/12/31 00:59:31;;;;;;;40.00;16.03;;;;;;;5.54;34.10;99120.50;5108501;28;20043;-66
2021/12/31 01:02:04;;;;;;;39.03;17.50;;;;;;;5.77;34.30;99110.47;5108256;28;20399;-66
2021/12/31 01:04:30;;;;;;;41.47;17.60;;;;;;;4.96;34.50;99116.16;5108387;28;20050;-66
2021/12/31 01:06:58;;;;;;;40.33;16.57;;;;;;;5.18;34.45;99119.34;5107730;28;20039;-65
2021/12/31 01:09:25;;;;;;;38.40;15.90;;;;;;;5.43;34.15;99110.09;5107731;28;20043;-65
2021/12/31 01:11:54;;;;;;;42.13;17.80;;;;;;;5.65;34.05;99109.81;5107941;28;20046;-65
2021/12/31 01:16:51;;;;;;;39.20;15.77;;;;;;;5.23;33.97;99100.53;5110241;28;20048;-65
2021/12/31 01:21:42;;;;;;;38.50;15.47;;;;;;;5.42;33.82;99097.91;5109957;28;20039;-66
2021/12/31 01:24:11;;;;;;;44.13;16.77;;;;;;;5.15;33.83;99093.31;5108773;28;20050;-66
2021/12/31 01:26:36;;;;;;;37.53;15.40;;;;;;;5.11;34.03;99096.34;5110248;28;20506;-66
2021/12/31 01:29:03;;;;;;;38.77;16.20;;;;;;;4.96;34.03;99053.00;5075496;28;20098;-66
2021/12/31 01:31:28;;;;;;;44.77;16.37;;;;;;;5.27;33.86;99101.09;5110085;28;20050;-65
2021/12/31 01:33:54;;;;;;;36.50;15.60;;;;;;;5.22;33.87;99101.50;5109910;28;20035;-67
2021/12/31 01:36:20;;;;;;;35.07;15.37;;;;;;;5.24;33.94;99091.69;5109855;28;20047;-66
2021/12/31 01:38:46;;;;;;;39.47;15.07;;;;;;;5.17;33.88;99072.97;5109588;28;20075;-67
2021/12/31 01:41:12;;;;;;;37.17;15.73;;;;;;;5.50;34.03;99069.06;5091862;28;20088;-67
2021/12/31 01:43:39;;;;;;;40.27;15.83;;;;;;;5.31;33.92;99095.41;5109158;28;20555;-67
2021/12/31 01:46:12;;;;;;;41.30;15.73;;;;;;;5.47;33.72;99087.78;5108302;28;20040;-66
2021/12/31 01:51:24;;;;;;;43.57;15.83;;;;;;;5.36;33.80;99077.41;5112548;28;20054;-67
2021/12/31 01:53:49;;;;;;;39.17;16.33;;;;;;;5.16;33.81;99076.56;5111320;28;20138;-67
2021/12/31 01:56:15;;;;;;;38.83;15.97;;;;;;;5.23;34.15;99064.50;5112360;28;20480;-67
2021/12/31 01:58:43;;;;;;;38.50;14.77;;;;;;;5.71;33.99;99064.47;5111633;28;20039;-66
2021/12/31 02:01:10;;;;;;;43.20;15.40;;;;;;;5.45;34.29;99080.97;5095329;28;20560;-66
2021/12/31 02:03:37;;;;;;;40.67;16.63;;;;;;;5.65;34.45;99064.19;5113755;28;20043;-66
2021/12/31 02:06:04;;;;;;;35.77;15.30;;;;;;;5.48;34.10;99067.53;5114014;28;20040;-66
2021/12/31 02:08:30;;;;;;;45.67;16.77;;;;;;;5.51;33.88;99051.44;5111623;28;20051;-66
2021/12/31 02:10:56;;;;;;;32.57;14.80;;;;;;;5.17;34.09;99045.78;5112225;28;20317;-66
2021/12/31 02:13:23;;;;;;;43.13;16.53;;;;;;;5.70;33.94;99049.66;5113308;28;20567;-66
2021/12/31 02:15:49;;;;;;;35.63;15.53;;;;;;;5.42;33.94;99039.97;5112038;28;20039;-66
2021/12/31 02:18:15;;;;;;;38.47;16.10;;;;;;;5.43;33.75;99043.44;5113084;28;20193;-66
2021/12/31 02:20:45;;;;;;;39.77;16.10;;;;;;;5.71;33.79;99001.25;5113212;28;20126;-65
2021/12/31 02:23:38;;;;;;;43.07;16.93;;;;;;;6.41;32.94;99040.28;5113410;28;20043;-65
2021/12/31 02:26:04;;;;;;;39.27;16.57;;;;;;;5.47;33.56;99043.03;5112285;28;20380;-66
2021/12/31 02:28:29;;;;;;;38.60;16.67;;;;;;;5.14;34.18;99041.66;5111870;28;20146;-66
2021/12/31 02:31:00;;;;;;;37.03;14.97;;;;;;;5.51;33.77;99031.22;5113269;28;20616;-66
2021/12/31 02:33:26;;;;;;;42.47;17.45;;;;;;;5.22;33.89;98985.69;5095384;28;20036;-66
2021/12/31 02:35:52;;;;;;;36.47;15.40;;;;;;;5.74;33.79;99018.56;5112949;28;20415;-66
2021/12/31 02:38:18;;;;;;;37.63;17.07;;;;;;;5.25;33.95;98980.13;5111666;28;20130;-66
2021/12/31 02:40:44;;;;;;;44.20;17.17;;;;;;;5.44;34.12;99008.22;5111831;28;20158;-66
2021/12/31 02:43:09;;;;;;;38.17;16.33;;;;;;;5.28;34.03;99018.50;5113078;28;20046;-65
2021/12/31 02:45:37;;;;;;;44.03;16.80;;;;;;;5.60;33.80;99019.84;5113060;28;20063;-66
2021/12/31 02:48:05;;;;;;;36.17;16.00;;;;;;;5.87;33.72;99019.13;5112828;28;20046;-66
2021/12/31 02:50:34;;;;;;;39.73;16.03;;;;;;;5.94;33.82;99005.22;5111544;28;20043;-65
2021/12/31 02:53:06;;;;;;;38.83;16.08;;;;;;;6.01;33.76;98998.38;5112485;28;20471;-66
2021/12/31 02:55:34;;;;;;;41.53;15.93;;;;;;;5.70;33.54;98996.13;5112858;28;20059;-66
2021/12/31 02:58:00;;;;;;;36.97;14.53;;;;;;;6.19;33.31;99004.56;5094254;28;20046;-65
2021/12/31 03:00:27;;;;;;;34.80;14.43;;;;;;;6.09;33.30;99013.50;5093897;28;20108;-66
2021/12/31 03:02:54;;;;;;;39.77;16.93;;;;;;;5.98;33.74;99009.22;5112515;28;20089;-66
2021/12/31 03:05:23;;;;;;;40.33;16.67;;;;;;;5.74;33.81;99008.84;5112224;28;20039;-65
2021/12/31 03:07:49;;;;;;;42.80;16.50;;;;;;;5.81;33.87;99003.84;5112258;28;20092;-66
2021/12/31 03:10:15;;;;;;;37.60;16.10;;;;;;;5.61;33.89;99007.50;5110891;28;20031;-65
2021/12/31 03:12:41;;;;;;;41.60;17.60;;;;;;;5.41;33.87;98998.00;5110872;28;20062;-66
2021/12/31 03:15:11;;;;;;;21.30;10.80;;;;;;;5.58;34.10;98981.47;5094613;28;20441;-66
2021/12/31 03:17:46;;;;;;;39.53;16.20;;;;;;;6.05;33.84;98973.41;5112120;28;20088;-67
2021/12/31 03:20:25;;;;;;;42.33;16.40;;;;;;;5.80;33.88;98979.31;5093837;28;20471;-65
2021/12/31 03:22:51;;;;;;;40.73;16.93;;;;;;;5.65;33.57;98979.91;5112121;28;20075;-66
2021/12/31 03:25:17;;;;;;;37.40;16.77;;;;;;;5.76;33.91;98977.94;5112172;28;20066;-67
2021/12/31 03:27:43;;;;;;;40.03;15.87;;;;;;;5.49;33.89;98962.06;5112183;28;20039;-66
2021/12/31 03:30:10;;;;;;;39.27;14.60;;;;;;;5.84;33.94;98961.44;5111433;28;20043;-66
2021/12/31 03:32:37;;;;;;;37.97;16.80;;;;;;;5.93;33.60;98968.47;5110881;28;20051;-66
2021/12/31 03:35:03;;;;;;;39.67;16.03;;;;;;;5.85;33.57;98973.63;5110694;28;20514;-66
2021/12/31 03:37:29;;;;;;;41.50;15.57;;;;;;;5.82;33.32;98979.19;5111628;28;20138;-65
2021/12/31 03:39:57;;;;;;;40.30;16.17;;;;;;;5.53;33.76;98973.16;5110586;28;20564;-66
2021/12/31 03:42:22;;;;;;;33.83;14.80;;;;;;;5.42;34.02;98960.97;5109804;28;20043;-65
2021/12/31 03:44:48;;;;;;;45.97;15.80;;;;;;;5.72;33.44;98963.38;5111334;28;20040;-66
2021/12/31 03:47:14;;;;;;;31.27;14.17;;;;;;;5.57;33.57;98964.81;5111393;28;20044;-65
2021/12/31 03:49:40;;;;;;;48.00;15.60;;;;;;;5.46;33.53;98933.38;5110432;28;20041;-66
2021/12/31 03:52:05;;;;;;;40.70;16.87;;;;;;;5.74;33.69;98966.72;5110192;28;20047;-66
2021/12/31 03:54:31;;;;;;;39.37;15.20;;;;;;;5.57;33.27;98933.22;5111334;28;20039;-66
2021/12/31 03:56:57;;;;;;;36.27;15.00;;;;;;;5.73;33.49;98953.69;5111486;28;20095;-66
2021/12/31 03:59:22;;;;;;;37.50;15.07;;;;;;;5.78;33.60;98931.19;5111161;28;20092;-66
2021/12/31 04:01:48;;;;;;;36.20;14.23;;;;;;;5.67;33.90;98923.50;5110131;28;20456;-65
2021/12/31 04:04:14;;;;;;;32.17;14.50;;;;;;;5.60;33.83;98927.66;5111270;28;20036;-63
2021/12/31 04:06:40;;;;;;;36.47;15.23;;;;;;;6.02;33.50;98926.25;5111197;28;20039;-63
2021/12/31 04:09:07;;;;;;;36.53;14.83;;;;;;;5.81;34.21;98920.34;5109558;28;20112;-63
2021/12/31 04:11:32;;;;;;;33.90;14.37;;;;;;;5.94;33.74;98914.78;5109404;28;20039;-65
2021/12/31 04:13:58;;;;;;;39.00;15.57;;;;;;;5.93;33.41;98913.97;5110731;28;20050;-65
2021/12/31 04:16:24;;;;;;;34.37;14.07;;;;;;;6.29;33.30;98913.06;5109477;28;20425;-62
2021/12/31 04:18:50;;;;;;;39.87;15.83;;;;;;;5.62;33.70;98915.19;5110798;28;20139;-58
2021/12/31 04:21:17;;;;;;;41.33;16.00;;;;;;;6.29;33.10;98920.13;5110840;28;20057;-62
2021/12/31 04:26:38;;;;;;;34.47;14.03;;;;;;;5.95;32.90;98875.09;5055145;28;20055;-65
2021/12/31 04:29:04;;;;;;;34.57;14.07;;;;;;;6.35;32.62;98922.19;5109805;28;20907;-64
2021/12/31 04:31:29;;;;;;;36.53;15.27;;;;;;;6.26;32.71;98921.25;5109546;28;20191;-74
2021/12/31 04:33:55;;;;;;;33.13;14.97;;;;;;;6.05;32.72;98896.97;5109285;28;20411;-70
2021/12/31 04:36:21;;;;;;;34.33;14.57;;;;;;;5.96;32.84;98895.22;5110706;28;20047;-68
2021/12/31 04:38:46;;;;;;;33.27;15.40;;;;;;;5.88;33.28;98942.56;5110305;28;20067;-68
2021/12/31 04:41:12;;;;;;;36.17;14.10;;;;;;;5.65;33.66;98941.22;5109481;28;20090;-69
2021/12/31 04:43:38;;;;;;;39.73;17.07;;;;;;;5.25;34.17;98940.66;5092013;28;20468;-68
2021/12/31 04:46:04;;;;;;;33.73;14.83;;;;;;;5.26;34.04;98926.50;5092361;28;20044;-67
2021/12/31 04:48:29;;;;;;;38.23;14.83;;;;;;;5.19;34.39;98936.78;5108495;28;20526;-66
2021/12/31 04:50:55;;;;;;;33.57;14.23;;;;;;;5.21;34.32;98939.28;5110319;28;20174;-67
2021/12/31 04:53:21;;;;;;;30.47;13.53;;;;;;;5.13;34.72;98945.25;5108990;28;20058;-69
2021/12/31 04:55:47;;;;;;;35.77;14.47;;;;;;;4.95;34.76;98936.38;5108832;28;20051;-67
2021/12/31 04:58:12;;;;;;;35.03;14.37;;;;;;;5.08;34.56;98939.56;5109115;28;20036;-66
2021/12/31 05:00:38;;;;;;;32.90;14.23;;;;;;;5.12;34.57;98938.31;5109946;28;20077;-69
2021/12/31 05:03:08;;;;;;;37.83;13.47;;;;;;;5.74;34.61;98929.81;5058168;28;20055;-68
2021/12/31 05:05:37;;;;;;;27.93;13.10;;;;;;;5.34;34.85;98936.31;5049288;28;20043;-76
2021/12/31 05:08:04;;;;;;;30.00;12.50;;;;;;;5.41;34.65;98932.16;5087438;28;20309;-67
2021/12/31 05:10:31;;;;;;;30.57;13.13;;;;;;;5.22;34.73;98923.34;5104271;28;20047;-67
2021/12/31 05:12:58;;;;;;;34.20;13.77;;;;;;;5.25;34.82;98927.47;5053594;28;20040;-66
2021/12/31 05:15:27;;;;;;;30.60;13.70;;;;;;;4.96;34.96;98911.75;5088519;28;20117;-66
2021/12/31 05:17:54;;;;;;;30.50;12.87;;;;;;;5.35;34.86;98915.13;5088594;28;20512;-67
2021/12/31 05:20:20;;;;;;;35.67;14.07;;;;;;;5.09;35.03;98908.81;5053996;28;20036;-67
2021/12/31 05:22:46;;;;;;;42.80;15.37;;;;;;;5.12;34.89;98905.88;5087721;28;20489;-69
2021/12/31 05:25:12;;;;;;;34.10;13.73;;;;;;;4.99;35.08;98893.06;5074805;28;20225;-69
2021/12/31 05:27:38;;;;;;;37.00;14.03;;;;;;;5.48;34.56;98894.56;5074526;28;20360;-68
2021/12/31 05:30:05;;;;;;;27.23;11.00;;;;;;;5.55;34.66;98885.09;5074656;28;20079;-68
2021/12/31 05:32:33;;;;;;;34.97;14.83;;;;;;;5.88;34.34;98876.69;5057627;28;20040;-69
2021/12/31 05:34:59;;;;;;;29.27;12.97;;;;;;;5.33;34.34;98851.25;5091323;28;20087;-69
2021/12/31 05:37:24;;;;;;;37.20;13.93;;;;;;;5.31;34.53;98845.31;5057598;28;20067;-68
2021/12/31 05:39:50;;;;;;;36.33;14.20;;;;;;;5.62;34.11;98888.84;5074483;28;20089;-69
2021/12/31 05:42:18;;;;;;;34.50;13.60;;;;;;;5.65;34.24;98882.44;5040911;28;20134;-69
2021/12/31 05:44:44;;;;;;;34.57;14.00;;;;;;;5.76;33.91;98887.53;5091542;28;20066;-73
2021/12/31 05:47:10;;;;;;;32.77;13.53;;;;;;;5.60;34.14;98887.31;5092800;28;20407;-75
2021/12/31 05:49:36;;;;;;;36.50;14.33;;;;;;;5.81;34.07;98872.94;5074791;28;20044;-73
2021/12/31 05:52:03;;;;;;;35.60;14.67;;;;;;;6.12;33.61;98865.59;5073579;28;20465;-73
2021/12/31 05:54:31;;;;;;;34.10;14.63;;;;;;;5.75;33.85;98875.34;5095184;28;20052;-73
2021/12/31 05:56:57;;;;;;;30.50;13.63;;;;;;;6.05;33.83;98860.06;5099532;28;20049;-72
2021/12/31 05:59:22;;;;;;;39.87;14.77;;;;;;;5.99;33.71;98878.28;5092078;28;20127;-74
2021/12/31 06:01:48;;;;;;;40.93;15.53;;;;;;;5.69;33.91;98865.38;5090971;28;20040;-73
2021/12/31 06:04:16;;;;;;;34.43;13.07;;;;;;;5.76;34.16;98882.25;5092163;28;20087;-74
2021/12/31 06:06:43;;;;;;;35.63;14.07;;;;;;;6.12;34.01;98884.03;5092860;28;20044;-75
2021/12/31 06:09:11;;;;;;;36.30;14.83;;;;;;;5.77;34.12;98866.31;5094431;28;20087;-74
2021/12/31 06:11:38;;;;;;;34.53;14.47;;;;;;;6.06;33.93;98871.44;5093458;28;20043;-75
2021/12/31 06:14:05;;;;;;;32.53;13.03;;;;;;;6.05;33.88;98873.25;5091940;28;20036;-74
2021/12/31 06:16:38;;;;;;;28.50;13.20;;;;;;;6.19;33.92;98825.28;5091037;28;20040;-72
2021/12/31 06:19:05;;;;;;;37.57;14.70;;;;;;;6.12;34.17;98860.31;5092395;28;20534;-77
2021/12/31 06:21:33;;;;;;;36.30;14.67;;;;;;;6.24;34.13;98864.41;5091290;28;20059;-74
2021/12/31 06:24:00;;;;;;;30.60;13.70;;;;;;;5.95;34.27;98863.75;5091758;28;20035;-75
2021/12/31 06:26:25;;;;;;;32.53;13.33;;;;;;;5.65;34.40;98861.38;5073621;28;20066;-74
2021/12/31 06:28:51;;;;;;;28.97;13.40;;;;;;;5.76;34.14;98861.19;5090700;28;20051;-73
2021/12/31 06:31:17;;;;;;;28.57;12.93;;;;;;;5.63;34.31;98864.16;5092537;28;20130;-70
2021/12/31 06:33:43;;;;;;;30.53;12.07;;;;;;;5.60;34.23;98832.00;5057594;28;20043;-80
2021/12/31 06:36:08;;;;;;;37.23;14.00;;;;;;;5.69;34.26;98873.28;5090888;28;20059;-80
2021/12/31 06:38:34;;;;;;;29.60;13.33;;;;;;;5.72;34.46;98870.38;5091453;28;20093;-80
2021/12/31 06:41:00;;;;;;;31.07;12.63;;;;;;;5.91;34.19;98871.13;5092951;28;20071;-80
2021/12/31 06:43:25;;;;;;;33.30;13.37;;;;;;;5.94;34.12;98869.97;5093409;28;20392;-77
2021/12/31 06:45:51;;;;;;;27.93;12.87;;;;;;;5.92;34.07;98867.50;5094563;28;20040;-79
2021/12/31 06:48:17;;;;;;;32.83;14.47;;;;;;;5.79;34.37;98861.72;5092162;28;20172;-80
2021/12/31 06:50:42;;;;;;;33.17;12.43;;;;;;;5.93;34.05;98868.34;5092766;28;20047;-79
2021/12/31 06:53:08;;;;;;;34.63;13.47;;;;;;;6.23;33.98;98847.72;5092639;28;20091;-77
2021/12/31 06:55:34;;;;;;;31.43;12.50;;;;;;;6.28;33.64;98861.31;5091269;28;20123;-77
2021/12/31 06:57:59;;;;;;;35.90;14.33;;;;;;;6.05;33.79;98857.44;5093805;28;20078;-77
2021/12/31 07:00:25;;;;;;;31.23;13.07;;;;;;;6.27;33.73;98864.91;5091194;28;20518;-79
2021/12/31 07:03:03;;;;;;;29.83;12.63;;;;;;;6.83;33.47;98852.22;5091978;28;20047;-81
2021/12/31 07:05:29;;;;;;;30.80;12.73;;;;;;;6.14;33.93;98861.81;5091335;28;20168;-75
2021/12/31 07:07:54;;;;;;;33.47;12.63;;;;;;;6.08;33.86;98851.03;5093033;28;20089;-74
2021/12/31 07:10:20;;;;;;;30.43;13.50;;;;;;;5.90;33.85;98837.00;5090172;28;20051;-75
2021/12/31 07:12:46;;;;;;;32.17;13.00;;;;;;;6.32;33.65;98844.19;5073473;28;20499;-75
2021/12/31 07:15:11;;;;;;;30.60;13.07;;;;;;;6.46;33.74;98846.31;5090176;28;20075;-73
2021/12/31 07:17:37;;;;;;;31.33;13.63;;;;;;;6.28;33.68;98848.13;5073470;28;20404;-76
2021/12/31 07:20:04;;;;;;;33.50;13.03;;;;;;;6.44;33.69;98829.78;5091135;28;20072;-74
2021/12/31 07:22:29;;;;;;;34.47;13.50;;;;;;;6.16;33.92;98830.03;5045585;28;20105;-76
2021/12/31 07:24:55;;;;;;;37.27;14.33;;;;;;;6.11;33.89;98827.84;5090524;28;20574;-77
2021/12/31 07:27:24;;;;;;;33.03;12.43;;;;;;;6.24;33.81;98832.75;5073585;28;20048;-76
2021/12/31 07:29:49;;;;;;;32.37;13.07;;;;;;;6.35;33.74;98822.78;5091760;28;20385;-71
2021/12/31 07:32:15;;;;;;;32.20;13.53;;;;;;;6.23;34.08;98813.47;5105873;28;20103;-79
2021/12/31 07:34:41;;;;;;;28.73;12.27;;;;;;;6.37;33.83;98823.47;5112372;28;20052;-76
2021/12/31 07:37:09;;;;;;;29.47;12.80;;;;;;;6.18;34.12;98813.06;5095524;28;20043;-76
2021/12/31 07:39:35;;;;;;;30.73;12.73;;;;;;;6.21;33.77;98812.78;5113071;28;20464;-76
2021/12/31 07:42:01;;;;;;;29.43;12.73;;;;;;;6.32;33.73;98825.72;5075236;28;20040;-76
2021/12/31 07:44:33;;;;;;;26.40;13.10;;;;;;;6.52;34.03;98818.47;5110502;28;20039;-77
2021/12/31 07:46:59;;;;;;;32.23;12.23;;;;;;;6.38;33.70;98819.84;5092806;28;20090;-79
2021/12/31 07:49:24;;;;;;;30.90;12.10;;;;;;;6.06;34.32;98802.91;5093320;28;20063;-76
2021/12/31 07:51:50;;;;;;;31.87;12.27;;;;;;;6.19;34.34;98804.22;5110925;28;20036;-71
2021/12/31 07:54:16;;;;;;;30.17;13.00;;;;;;;6.10;34.04;98762.94;5111356;28;20403;-78
2021/12/31 07:56:41;;;;;;;28.87;13.43;;;;;;;6.46;34.07;98798.00;5109779;28;20127;-76
2021/12/31 07:59:07;;;;;;;32.10;13.30;;;;;;;6.24;33.95;98801.13;5097382;28;20530;-78
2021/12/31 08:01:33;;;;;;;31.10;13.77;;;;;;;6.15;34.21;98791.47;5091894;28;20039;-81
2021/12/31 08:03:59;;;;;;;29.50;12.97;;;;;;;6.27;34.05;98801.63;5090623;28;20779;-75
2021/12/31 08:06:24;;;;;;;30.37;13.00;;;;;;;6.18;33.98;98749.00;5099420;28;20058;-78
2021/12/31 08:08:50;;;;;;;29.03;12.47;;;;;;;6.48;33.93;98802.16;5097607;28;20203;-70
2021/12/31 08:11:16;;;;;;;34.07;13.93;;;;;;;6.61;33.71;98789.38;5083481;28;20397;-76
2021/12/31 08:13:42;;;;;;;27.53;13.00;;;;;;;6.69;33.56;98789.44;5096586;28;20483;-79
2021/12/31 08:16:07;;;;;;;31.47;13.27;;;;;;;6.74;33.25;98779.25;5100921;28;20046;-75
2021/12/31 08:18:33;;;;;;;31.10;12.80;;;;;;;6.57;33.60;98774.84;5071688;28;20069;-78
2021/12/31 08:20:59;;;;;;;31.70;13.73;;;;;;;6.61;33.49;98778.03;5083328;28;20047;-78
2021/12/31 08:23:25;;;;;;;29.23;12.47;;;;;;;6.66;33.32;98773.09;5070138;28;20081;-76
2021/12/31 08:25:51;;;;;;;33.00;13.60;;;;;;;6.62;33.67;98761.19;5106718;28;20066;-69
2021/12/31 08:28:17;;;;;;;30.87;12.50;;;;;;;6.64;33.45;98767.16;5095374;28;20048;-74
2021/12/31 08:30:42;;;;;;;36.33;14.47;;;;;;;6.63;33.74;98757.56;5099485;28;20035;-77
2021/12/31 08:33:08;;;;;;;28.70;14.07;;;;;;;6.61;33.54;98763.00;5097104;28;20051;-75
2021/12/31 08:35:34;;;;;;;33.13;14.27;;;;;;;6.71;34.01;98757.63;5093795;28;20167;-75
2021/12/31 08:38:00;;;;;;;32.33;13.23;;;;;;;6.54;34.07;98746.16;5095832;28;20126;-74
2021/12/31 08:40:26;;;;;;;33.30;13.77;;;;;;;6.46;34.04;98747.88;5088780;28;20238;-73
2021/12/31 08:42:52;;;;;;;29.67;12.97;;;;;;;6.54;33.80;98745.31;5052334;28;20040;-74
2021/12/31 08:45:19;;;;;;;32.60;14.50;;;;;;;6.86;34.33;98738.44;5102197;28;20043;-75
2021/12/31 08:47:45;;;;;;;30.73;12.87;;;;;;;6.59;34.04;98732.50;5106556;28;20043;-72
2021/12/31 08:50:10;;;;;;;32.93;14.03;;;;;;;6.56;34.26;98732.81;5088311;28;20790;-74
2021/12/31 08:52:36;;;;;;;33.60;13.70;;;;;;;6.71;33.98;98741.78;5087400;28;20077;-75
2021/12/31 08:55:04;;;;;;;27.43;12.30;;;;;;;6.76;34.03;98706.03;5105433;28;20138;-74
2021/12/31 08:57:30;;;;;;;27.37;11.93;;;;;;;6.51;33.94;98735.06;5071802;28;20068;-77
2021/12/31 08:59:55;;;;;;;33.03;13.00;;;;;;;6.51;33.86;98732.44;5105995;28;20646;-76
2021/12/31 09:02:21;;;;;;;31.17;12.80;;;;;;;6.50;34.12;98718.41;5072876;28;20142;-77
2021/12/31 09:04:47;;;;;;;31.97;13.97;;;;;;;6.61;33.90;98706.78;5090819;28;20145;-79
2021/12/31 09:07:13;;;;;;;31.73;13.53;;;;;;;6.68;33.94;98716.56;5089759;28;20040;-75
2021/12/31 09:09:40;;;;;;;35.53;13.83;;;;;;;6.72;33.97;98715.25;5089646;28;20055;-77
2021/12/31 09:12:06;;;;;;;28.13;12.67;;;;;;;6.77;34.01;98707.72;5076518;28;20042;-76
2021/12/31 09:14:32;;;;;;;31.23;13.97;;;;;;;6.82;33.72;98715.16;5077224;28;20112;-76
2021/12/31 09:16:58;;;;;;;31.63;13.53;;;;;;;6.66;33.92;98707.97;5094821;28;20040;-75
2021/12/31 09:19:24;;;;;;;32.47;13.50;;;;;;;6.68;33.94;98706.00;5056846;28;20134;-77
2021/12/31 09:21:49;;;;;;;29.40;13.10;;;;;;;6.82;33.77;98700.16;5088019;28;20055;-73
2021/12/31 09:24:15;;;;;;;36.37;14.43;;;;;;;6.74;33.69;98694.84;5069093;28;20044;-76
2021/12/31 09:26:41;;;;;;;30.00;12.90;;;;;;;6.82;33.92;98697.53;5085793;28;20048;-78
2021/12/31 09:29:07;;;;;;;40.70;14.40;;;;;;;6.70;33.95;98696.09;5068649;28;20830;-76
2021/12/31 09:31:32;;;;;;;31.13;13.60;;;;;;;6.75;33.91;98690.34;5068491;28;20039;-79
2021/12/31 09:33:58;;;;;;;36.47;13.73;;;;;;;6.78;34.17;98698.00;5072404;28;20052;-75
2021/12/31 09:36:24;;;;;;;35.40;14.27;;;;;;;6.27;34.39;98672.44;5076954;28;20130;-75
2021/12/31 09:38:53;;;;;;;36.53;14.43;;;;;;;6.66;34.24;98680.75;5086813;28;20040;-78
2021/12/31 09:41:19;;;;;;;37.07;15.73;;;;;;;6.98;34.18;98670.34;5085849;28;20040;-76
2021/12/31 09:43:48;;;;;;;37.90;14.93;;;;;;;7.75;33.57;98676.16;5069425;28;20051;-74
2021/12/31 09:46:15;;;;;;;36.33;14.57;;;;;;;7.23;33.86;98665.97;5083882;28;20044;-75
2021/12/31 09:48:41;;;;;;;41.53;16.03;;;;;;;7.29;33.41;98668.00;5068551;28;20389;-73
2021/12/31 09:51:07;;;;;;;34.40;15.10;;;;;;;7.48;33.34;98662.41;5068164;28;20044;-72
2021/12/31 09:53:33;;;;;;;36.60;15.97;;;;;;;7.26;33.35;98665.69;5035290;28;20039;-71
2021/12/31 09:55:59;;;;;;;36.37;15.40;;;;;;;7.23;33.17;98652.78;5068606;28;20044;-74
2021/12/31 09:58:26;;;;;;;39.97;16.50;;;;;;;7.47;33.56;98663.41;5051392;28;20074;-75
2021/12/31 10:00:57;;;;;;;37.23;15.33;;;;;;;7.94;33.31;98654.72;5068057;28;20123;-74
2021/12/31 10:03:28;;;;;;;;;;;;;;;8.47;32.14;98656.84;5085346;28;20131;-75
2021/12/31 10:06:04;;;;;;;32.45;13.80;;;;;;;8.06;32.61;98644.63;5067513;28;20494;-73
2021/12/31 10:08:38;;;;;;;38.80;14.87;;;;;;;7.72;33.13;98668.56;5085508;28;20446;-72
2021/12/31 10:11:16;;;;;;;34.83;14.10;;;;;;;8.04;32.79;98646.63;5069656;28;20173;-77
2021/12/31 10:13:44;;;;;;;43.60;15.73;;;;;;;7.71;33.25;98655.53;5055017;28;20044;-75
2021/12/31 10:16:40;;;;;;;40.42;16.08;;;;;;;8.06;32.79;98657.84;5088751;28;20048;-77
2021/12/31 10:19:11;;;;;;;35.07;14.87;;;;;;;7.82;33.28;98649.91;5085462;28;20660;-75
2021/12/31 10:21:50;;;;;;;36.43;15.47;;;;;;;7.88;33.11;98650.09;5071611;28;20443;-75
2021/12/31 10:24:22;;;;;;;35.23;15.23;;;;;;;7.91;33.24;98648.94;5091100;28;20518;-78
2021/12/31 10:26:58;;;;;;;39.80;15.50;;;;;;;7.53;33.42;98639.00;5097341;28;20585;-76
2021/12/31 10:29:25;;;;;;;35.63;15.30;;;;;;;7.58;33.20;98663.13;5098593;28;20043;-76
2021/12/31 10:31:52;;;;;;;39.27;15.13;;;;;;;7.33;33.59;98621.78;5097489;28;20035;-70
2021/12/31 10:34:32;;;;;;;37.00;15.27;;;;;;;7.75;33.57;98644.44;5098859;28;20479;-79
2021/12/31 10:37:15;;;;;;;32.23;12.93;;;;;;;7.63;33.58;98640.50;5090952;28;20035;-76
2021/12/31 10:39:42;;;;;;;41.20;15.20;;;;;;;7.15;33.60;98598.13;5071875;28;20047;-75
2021/12/31 10:42:09;;;;;;;36.90;15.17;;;;;;;7.67;33.58;98641.00;5067688;28;20047;-75
2021/12/31 10:44:51;;;;;;;45.93;15.93;;;;;;;7.93;33.30;98641.66;5098743;27;20040;-76
2021/12/31 10:47:27;;;;;;;47.97;15.57;;;;;;;7.96;33.25;98642.16;5095626;28;20043;-72
2021/12/31 10:49:59;;;;;;;45.13;16.30;;;;;;;7.82;33.48;98624.31;5065575;28;20048;-75
2021/12/31 10:53:09;;;;;;;48.83;16.40;;;;;;;8.00;33.27;98621.50;5100139;28;20032;-73
2021/12/31 10:55:39;;;;;;;36.20;14.73;;;;;;;7.27;33.56;98627.72;5094866;28;20056;-72
2021/12/31 10:58:09;;;;;;;42.40;15.93;;;;;;;7.44;33.95;98629.41;5056762;28;20047;-72
2021/12/31 11:00:43;;;;;;;43.77;16.53;;;;;;;7.64;33.65;98617.53;5056412;28;20131;-72
2021/12/31 11:03:09;;;;;;;39.20;16.63;;;;;;;7.42;33.70;98610.25;5039825;28;20040;-71
2021/12/31 11:05:36;;;;;;;47.47;17.23;;;;;;;7.33;33.68;98604.13;5072576;28;20079;-72
2021/12/31 11:08:13;;;;;;;39.53;16.20;;;;;;;7.79;33.59;98600.88;5039318;28;20052;-72
2021/12/31 11:10:39;;;;;;;46.17;18.57;;;;;;;7.45;34.01;98602.00;5072867;28;20419;-74
2021/12/31 11:13:14;;;;;;;49.60;17.90;;;;;;;7.56;34.07;98578.72;5072998;28;20044;-75
2021/12/31 11:15:43;;;;;;;44.03;16.93;;;;;;;7.38;34.35;98598.38;5073773;28;20050;-74
2021/12/31 11:18:08;;;;;;;46.20;17.23;;;;;;;7.04;34.20;98587.06;5089968;28;20079;-74
2021/12/31 11:20:34;;;;;;;54.97;18.97;;;;;;;7.28;34.28;98587.09;5073431;28;20048;-74
2021/12/31 11:23:00;;;;;;;44.33;17.67;;;;;;;7.07;34.18;98573.53;5056314;28;20078;-76
2021/12/31 11:25:28;;;;;;;39.63;15.23;;;;;;;7.64;33.87;98576.06;5073217;28;20036;-74
2021/12/31 11:27:56;;;;;;;47.50;17.37;;;;;;;7.79;33.94;98578.88;5089257;28;20097;-74
2021/12/31 11:30:38;;;;;;;56.13;19.57;;;;;;;8.02;33.50;98578.03;5073227;28;20093;-73
2021/12/31 11:33:05;;;;;;;51.23;18.43;;;;;;;7.16;33.76;98525.03;5095810;28;20083;-75
2021/12/31 11:35:38;;;;;;;45.23;16.13;;;;;;;7.94;33.73;98574.56;5075601;28;20051;-74
2021/12/31 11:38:28;;;;;;;45.27;17.00;;;;;;;7.79;33.69;98568.31;5092222;28;20101;-73
2021/12/31 11:41:23;;;;;;;54.30;19.20;;;;;;;8.10;33.28;98569.28;5084769;28;20150;-74